createdAt,value
2018-11-04T00:00:54.226Z,6.72
2018-11-04T00:05:57.354Z,6.62
2018-11-04T00:11:00.553Z,6.68
2018-11-04T00:16:03.779Z,6.74
2018-11-04T00:21:06.939Z,6.77
2018-11-04T00:26:10.080Z,6.71
2018-11-04T00:31:13.204Z,6.57
2018-11-04T00:36:16.376Z,6.41
2018-11-04T00:41:19.538Z,6.30
2018-11-04T00:46:22.652Z,6.13
2018-11-04T00:51:25.767Z,6.08
2018-11-04T00:56:28.890Z,6.01
2018-11-04T01:01:32.102Z,5.92
2018-11-04T01:06:35.202Z,5.77
2018-11-04T01:11:38.413Z,5.66
2018-11-04T01:16:41.696Z,5.61
2018-11-04T01:21:44.910Z,5.61
2018-11-04T01:26:48.027Z,5.56
2018-11-04T01:31:51.139Z,5.44
2018-11-04T01:36:54.295Z,5.40
2018-11-04T01:41:57.409Z,5.35
2018-11-04T01:47:00.535Z,5.38
2018-11-04T01:52:03.687Z,5.45
2018-11-04T01:57:06.834Z,5.56
2018-11-04T02:02:09.970Z,5.61
2018-11-04T02:07:13.079Z,5.66
2018-11-04T02:12:16.203Z,5.66
2018-11-04T02:17:19.311Z,5.58
2018-11-04T02:22:22.406Z,5.55
2018-11-04T02:27:25.590Z,5.54
2018-11-04T02:32:28.710Z,5.56
2018-11-04T02:37:31.813Z,5.59
2018-11-04T02:42:34.916Z,5.52
2018-11-04T02:47:38.310Z,5.45
2018-11-04T02:52:41.397Z,5.41
2018-11-04T02:57:44.485Z,5.37
2018-11-04T03:02:47.610Z,5.32
2018-11-04T03:07:50.707Z,5.22
2018-11-04T03:12:53.786Z,5.23
2018-11-04T03:17:56.887Z,5.15
2018-11-04T03:23:00.280Z,5.09
2018-11-04T03:28:03.453Z,5.12
2018-11-04T03:33:07.430Z,5.20
2018-11-04T03:38:10.640Z,5.13
2018-11-04T03:43:13.821Z,5.07
2018-11-04T03:48:16.969Z,4.97
2018-11-04T03:53:20.513Z,5.04
2018-11-04T03:58:23.628Z,5.03
2018-11-04T04:03:26.730Z,4.95
2018-11-04T04:08:30.156Z,4.82
2018-11-04T04:13:33.721Z,4.71
2018-11-04T04:18:36.871Z,4.72
2018-11-04T04:23:41.558Z,4.78
2018-11-04T04:28:44.656Z,4.77
2018-11-04T04:33:47.727Z,4.69
2018-11-04T04:38:50.834Z,4.69
2018-11-04T04:43:53.925Z,4.72
2018-11-04T04:48:57.094Z,4.65
2018-11-04T04:54:00.298Z,4.75
2018-11-04T04:59:04.047Z,4.77
2018-11-04T05:04:07.153Z,4.86
2018-11-04T05:09:10.258Z,5.03
2018-11-04T05:14:13.378Z,5.09
2018-11-04T05:19:16.481Z,5.27
2018-11-04T05:24:19.619Z,5.35
2018-11-04T05:29:22.742Z,5.41
2018-11-04T05:34:25.866Z,5.52
2018-11-04T05:39:29.038Z,5.68
2018-11-04T05:44:32.151Z,5.70
2018-11-04T05:49:35.344Z,5.90
2018-11-04T05:54:38.666Z,5.93
2018-11-04T05:59:42.191Z,5.96
2018-11-04T06:04:45.417Z,6.10
2018-11-04T06:09:48.569Z,6.17
2018-11-04T06:14:51.727Z,6.26
2018-11-04T06:19:54.872Z,6.35
2018-11-04T06:24:58.114Z,6.44
2018-11-04T06:30:01.255Z,6.49
2018-11-04T06:35:05.306Z,6.49
2018-11-04T06:40:11.397Z,6.55
2018-11-04T06:45:14.654Z,6.63
2018-11-04T06:50:18.157Z,6.79
2018-11-04T06:55:21.418Z,6.73
2018-11-04T07:00:24.821Z,6.79
2018-11-04T07:05:28.180Z,6.88
2018-11-04T07:10:31.478Z,7.02
2018-11-04T07:15:35.010Z,7.15
2018-11-04T07:20:38.234Z,7.37
2018-11-04T07:25:41.461Z,7.42
2018-11-04T07:30:44.649Z,7.49
2018-11-04T07:35:47.813Z,7.68
2018-11-04T07:40:50.959Z,7.81
2018-11-04T07:45:54.102Z,7.82
2018-11-04T07:50:57.242Z,8.00
2018-11-04T07:56:00.413Z,8.10
2018-11-04T08:01:03.690Z,8.22
2018-11-04T08:06:06.893Z,8.35
2018-11-04T08:11:10.911Z,8.49
2018-11-04T08:16:14.069Z,8.64
2018-11-04T08:21:17.506Z,8.74
2018-11-04T08:26:20.597Z,8.84
2018-11-04T08:31:23.717Z,8.98
2018-11-04T08:36:26.864Z,9.23
2018-11-04T08:41:29.996Z,9.51
2018-11-04T08:46:33.225Z,9.73
2018-11-04T08:51:36.464Z,9.88
2018-11-04T08:56:39.671Z,10.08
2018-11-04T09:01:42.793Z,10.32
2018-11-04T09:06:45.945Z,10.51
2018-11-04T09:11:49.153Z,10.67
2018-11-04T09:16:52.323Z,10.81
2018-11-04T09:21:55.671Z,11.01
2018-11-04T09:26:58.639Z,11.25
2018-11-04T09:32:01.930Z,11.45
2018-11-04T09:37:05.314Z,11.54
2018-11-04T09:42:08.471Z,11.61
2018-11-04T09:47:11.702Z,11.83
2018-11-04T09:52:14.814Z,12.03
2018-11-04T09:57:17.950Z,12.26
2018-11-04T10:02:21.069Z,12.49
2018-11-04T10:07:24.206Z,12.57
2018-11-04T10:12:27.356Z,12.73
2018-11-04T10:17:30.474Z,12.73
2018-11-04T10:22:33.699Z,13.02
2018-11-04T10:27:37.283Z,13.10
2018-11-04T10:32:40.540Z,13.28
2018-11-04T10:37:43.712Z,13.34
2018-11-04T10:42:46.904Z,13.31
2018-11-04T10:47:50.045Z,13.29
2018-11-04T10:52:53.208Z,13.26
2018-11-04T10:57:59.129Z,13.38
2018-11-04T11:03:02.489Z,13.54
2018-11-04T11:08:05.808Z,13.94
2018-11-04T11:13:08.958Z,14.02
2018-11-04T11:18:12.082Z,13.89
2018-11-04T11:23:15.319Z,14.06
2018-11-04T11:28:18.391Z,13.85
2018-11-04T11:33:21.546Z,13.65
2018-11-04T11:38:24.737Z,13.86
2018-11-04T11:43:27.893Z,14.02
2018-11-04T11:48:31.390Z,14.04
2018-11-04T11:53:34.730Z,14.16
2018-11-04T11:58:38.128Z,14.15
2018-11-04T12:03:41.889Z,14.16
2018-11-04T12:08:46.595Z,14.35
2018-11-04T12:13:49.831Z,14.26
2018-11-04T12:18:53.010Z,14.14
2018-11-04T12:23:56.147Z,14.22
2018-11-04T12:28:59.278Z,14.19
2018-11-04T12:34:02.414Z,14.33
2018-11-04T12:39:08.608Z,14.54
2018-11-04T12:44:11.920Z,14.64
2018-11-04T12:49:15.191Z,14.62
2018-11-04T12:54:18.410Z,14.82
2018-11-04T12:59:21.750Z,14.76
2018-11-04T13:04:25.038Z,14.88
2018-11-04T13:09:28.229Z,14.96
2018-11-04T13:14:31.465Z,14.80
2018-11-04T13:19:34.700Z,14.70
2018-11-04T13:24:37.910Z,14.72
2018-11-04T13:29:41.265Z,14.75
2018-11-04T13:34:44.465Z,14.72
2018-11-04T13:39:47.750Z,14.84
2018-11-04T13:44:52.161Z,14.84
2018-11-04T13:49:55.292Z,14.72
2018-11-04T13:54:58.433Z,14.79
2018-11-04T14:00:01.647Z,14.77
2018-11-04T14:05:05.889Z,14.70
2018-11-04T14:10:10.514Z,14.67
2018-11-04T14:15:14.152Z,14.74
2018-11-04T14:20:17.293Z,14.68
2018-11-04T14:25:20.477Z,14.62
2018-11-04T14:30:23.618Z,14.51
2018-11-04T14:35:26.831Z,14.41
2018-11-04T14:40:30.753Z,14.40
2018-11-04T14:45:35.588Z,14.43
2018-11-04T14:50:39.710Z,14.37
2018-11-04T14:55:43.674Z,14.40
2018-11-04T15:00:47.391Z,14.46
2018-11-04T15:05:50.532Z,14.19
2018-11-04T15:10:53.714Z,13.89
2018-11-04T15:15:56.899Z,13.65
2018-11-04T15:21:00.090Z,13.48
2018-11-04T15:26:03.321Z,13.29
2018-11-04T15:31:06.516Z,13.19
2018-11-04T15:36:09.691Z,13.07
2018-11-04T15:41:12.805Z,12.90
2018-11-04T15:46:16.006Z,12.78
2018-11-04T15:51:21.051Z,12.65
2018-11-04T15:56:26.610Z,12.51
2018-11-04T16:01:31.615Z,12.35
2018-11-04T16:06:36.278Z,12.24
2018-11-04T16:11:40.969Z,12.23
2018-11-04T16:16:45.740Z,12.30
2018-11-04T16:21:50.077Z,12.29
2018-11-04T16:26:53.436Z,12.36
2018-11-04T16:31:57.202Z,12.55
2018-11-04T16:37:00.327Z,12.70
2018-11-04T16:42:03.490Z,12.86
2018-11-04T16:47:06.634Z,12.85
2018-11-04T16:52:09.806Z,12.92
2018-11-04T16:57:12.982Z,12.97
2018-11-04T17:02:16.196Z,13.02
2018-11-04T17:07:19.370Z,13.16
2018-11-04T17:12:22.542Z,13.13
2018-11-04T17:17:25.674Z,13.21
2018-11-04T17:22:28.961Z,13.30
2018-11-04T17:27:33.210Z,13.40
2018-11-04T17:32:37.273Z,13.46
2018-11-04T17:37:41.303Z,13.36
2018-11-04T17:42:44.697Z,13.59
2018-11-04T17:47:47.858Z,13.61
2018-11-04T17:52:51.110Z,13.65
2018-11-04T17:57:54.275Z,13.69
2018-11-04T18:02:57.660Z,13.76
2018-11-04T18:08:01.917Z,13.79
2018-11-04T18:13:05.274Z,13.79
2018-11-04T18:18:08.482Z,13.77
2018-11-04T18:23:11.618Z,13.76
2018-11-04T18:28:14.777Z,13.79
2018-11-04T18:33:17.918Z,13.79
2018-11-04T18:38:21.081Z,13.77
2018-11-04T18:43:24.380Z,13.69
2018-11-04T18:48:27.688Z,13.69
2018-11-04T18:53:31.083Z,13.54
2018-11-04T18:58:34.328Z,13.41
2018-11-04T19:03:37.666Z,13.40
2018-11-04T19:08:42.100Z,13.45
2018-11-04T19:13:47.761Z,13.54
2018-11-04T19:18:52.498Z,13.59
2018-11-04T19:23:57.507Z,13.64
2018-11-04T19:29:02.377Z,13.64
2018-11-04T19:34:07.377Z,13.64
2018-11-04T19:39:12.776Z,13.63
2018-11-04T19:44:16.816Z,13.63
2018-11-04T19:49:21.451Z,13.63
2018-11-04T19:54:26.801Z,13.61
2018-11-04T19:59:31.717Z,13.63
2018-11-04T20:04:35.248Z,13.60
2018-11-04T20:09:38.430Z,13.60
2018-11-04T20:14:41.658Z,13.60
2018-11-04T20:19:50.529Z,13.58
2018-11-04T20:25:00.131Z,13.55
2018-11-04T20:30:04.764Z,13.47
2018-11-04T20:35:08.529Z,13.44
2018-11-04T20:40:17.850Z,13.30
2018-11-04T20:45:21.776Z,13.30
2018-11-04T20:50:31.658Z,13.26
2018-11-04T20:55:41.116Z,13.28
2018-11-04T21:00:44.806Z,13.29
2018-11-04T21:05:48.023Z,13.23
2018-11-04T21:10:51.966Z,13.20
2018-11-04T21:15:55.435Z,13.21
2018-11-04T21:20:58.501Z,13.28
2018-11-04T21:26:01.654Z,13.23
2018-11-04T21:31:04.902Z,13.35
2018-11-04T21:36:08.077Z,13.33
2018-11-04T21:41:11.286Z,13.38
2018-11-04T21:46:14.773Z,13.37
2018-11-04T21:51:18.135Z,13.32
2018-11-04T21:56:21.441Z,13.33
2018-11-04T22:01:24.509Z,13.36
2018-11-04T22:06:27.677Z,13.44
2018-11-04T22:11:30.817Z,13.52
2018-11-04T22:16:34.082Z,13.50
2018-11-04T22:21:37.570Z,13.46
2018-11-04T22:26:41.069Z,13.50
2018-11-04T22:31:44.419Z,13.42
2018-11-04T22:36:47.687Z,13.45
2018-11-04T22:41:50.846Z,13.37
2018-11-04T22:46:54.035Z,13.37
2018-11-04T22:51:57.211Z,13.34
2018-11-04T22:57:00.441Z,13.36
2018-11-04T23:02:04.797Z,13.39
2018-11-04T23:07:08.041Z,13.38
2018-11-04T23:12:11.329Z,13.46
2018-11-04T23:17:14.555Z,13.41
2018-11-04T23:22:17.876Z,13.39
2018-11-04T23:27:21.107Z,13.44
2018-11-04T23:32:24.288Z,13.46
2018-11-04T23:37:27.497Z,12.71
2018-11-04T23:42:30.684Z,13.37
2018-11-04T23:47:33.835Z,13.46
2018-11-04T23:52:37.035Z,13.41
2018-11-04T23:57:40.173Z,13.42
